createdAt,value
2019-03-19T00:02:08.991Z,1.30
2019-03-19T00:04:37.291Z,1.30
2019-03-19T00:07:05.574Z,1.30
2019-03-19T00:09:33.827Z,1.20
2019-03-19T00:12:02.125Z,1.20
2019-03-19T00:14:30.431Z,1.30
2019-03-19T00:16:58.682Z,1.30
2019-03-19T00:19:26.991Z,1.30
2019-03-19T00:21:55.248Z,1.40
2019-03-19T00:24:23.474Z,1.40
2019-03-19T00:26:51.731Z,1.40
2019-03-19T00:29:19.956Z,1.40
2019-03-19T00:31:48.199Z,1.40
2019-03-19T00:34:16.444Z,1.30
2019-03-19T00:36:44.686Z,1.30
2019-03-19T00:39:12.931Z,1.40
2019-03-19T00:41:41.162Z,1.40
2019-03-19T00:44:09.414Z,1.40
2019-03-19T00:46:37.656Z,1.40
2019-03-19T00:49:06.932Z,1.40
2019-03-19T00:51:35.321Z,1.30
2019-03-19T00:54:03.566Z,1.30
2019-03-19T00:56:31.798Z,1.30
2019-03-19T00:59:00.076Z,1.30
2019-03-19T01:01:28.315Z,1.30
2019-03-19T01:03:56.559Z,1.30
2019-03-19T01:06:24.802Z,1.20
2019-03-19T01:08:53.044Z,1.20
2019-03-19T01:11:21.270Z,1.20
2019-03-19T01:13:49.549Z,1.30
2019-03-19T01:16:17.796Z,1.30
2019-03-19T01:18:46.035Z,1.30
2019-03-19T01:21:14.263Z,1.30
2019-03-19T01:23:42.502Z,1.20
2019-03-19T01:26:10.749Z,1.20
2019-03-19T01:28:38.986Z,1.30
2019-03-19T01:31:07.220Z,1.20
2019-03-19T01:33:35.466Z,1.20
2019-03-19T01:36:03.718Z,1.10
2019-03-19T01:38:32.031Z,1.20
2019-03-19T01:41:00.255Z,1.10
2019-03-19T01:43:28.507Z,1.10
2019-03-19T01:45:56.756Z,1.00
2019-03-19T01:48:25.006Z,1.00
2019-03-19T01:50:53.372Z,1.00
2019-03-19T01:53:21.685Z,1.10
2019-03-19T01:55:50.386Z,1.20
2019-03-19T01:58:18.623Z,1.20
2019-03-19T02:00:46.873Z,1.10
2019-03-19T02:03:15.111Z,1.00
2019-03-19T02:05:43.369Z,0.90
2019-03-19T02:08:11.603Z,0.90
2019-03-19T02:10:39.862Z,0.90
2019-03-19T02:13:08.096Z,0.80
2019-03-19T02:15:36.334Z,0.80
2019-03-19T02:18:04.584Z,0.90
2019-03-19T02:20:32.825Z,1.00
2019-03-19T02:23:01.069Z,1.00
2019-03-19T02:25:29.300Z,0.90
2019-03-19T02:27:57.558Z,0.90
2019-03-19T02:30:25.789Z,0.80
2019-03-19T02:32:54.037Z,0.80
2019-03-19T02:35:22.338Z,0.90
2019-03-19T02:37:50.577Z,0.90
2019-03-19T02:40:18.858Z,1.00
2019-03-19T02:42:47.112Z,1.00
2019-03-19T02:45:16.544Z,0.90
2019-03-19T02:47:44.831Z,0.90
2019-03-19T02:50:14.512Z,0.90
2019-03-19T02:52:42.744Z,0.90
2019-03-19T02:55:11.208Z,0.90
2019-03-19T02:57:39.494Z,0.90
2019-03-19T03:00:10.687Z,0.90
2019-03-19T03:02:38.915Z,0.90
2019-03-19T03:05:10.497Z,1.00
2019-03-19T03:07:38.756Z,1.20
2019-03-19T03:10:09.543Z,1.00
2019-03-19T03:12:37.783Z,1.10
2019-03-19T03:15:08.060Z,1.10
2019-03-19T03:17:36.296Z,1.20
2019-03-19T03:20:07.184Z,1.20
2019-03-19T03:22:35.435Z,1.20
2019-03-19T03:25:08.047Z,1.20
2019-03-19T03:27:36.294Z,1.10
2019-03-19T03:30:07.827Z,1.20
2019-03-19T03:32:36.104Z,1.10
2019-03-19T03:35:05.562Z,1.20
2019-03-19T03:37:33.844Z,1.30
2019-03-19T03:40:02.092Z,1.30
2019-03-19T03:42:30.323Z,1.20
2019-03-19T03:44:58.595Z,1.20
2019-03-19T03:47:26.835Z,1.30
2019-03-19T03:49:55.083Z,1.20
2019-03-19T03:52:23.320Z,1.10
2019-03-19T03:54:51.563Z,1.30
2019-03-19T03:57:19.805Z,1.20
2019-03-19T03:59:48.038Z,1.20
2019-03-19T04:02:16.271Z,1.10
2019-03-19T04:04:44.520Z,1.10
2019-03-19T04:07:12.762Z,1.00
2019-03-19T04:09:41.025Z,1.20
2019-03-19T04:12:09.334Z,1.20
2019-03-19T04:14:37.572Z,1.30
2019-03-19T04:17:05.812Z,1.50
2019-03-19T04:19:34.035Z,1.50
2019-03-19T04:22:02.282Z,1.50
2019-03-19T04:24:30.515Z,1.40
2019-03-19T04:26:58.848Z,1.50
2019-03-19T04:29:27.102Z,1.50
2019-03-19T04:31:55.335Z,1.40
2019-03-19T04:34:23.571Z,1.40
2019-03-19T04:36:51.824Z,1.40
2019-03-19T04:39:21.670Z,1.40
2019-03-19T04:41:49.931Z,1.50
2019-03-19T04:44:18.154Z,1.50
2019-03-19T04:46:46.390Z,1.60
2019-03-19T04:49:14.643Z,1.60
2019-03-19T04:51:42.887Z,1.60
2019-03-19T04:54:11.118Z,1.60
2019-03-19T04:56:39.371Z,1.70
2019-03-19T04:59:07.608Z,1.80
2019-03-19T05:01:35.846Z,1.80
2019-03-19T05:04:04.208Z,1.70
2019-03-19T05:06:32.496Z,1.80
2019-03-19T05:09:00.731Z,1.70
2019-03-19T05:11:29.039Z,1.60
2019-03-19T05:13:57.280Z,1.70
2019-03-19T05:16:25.514Z,1.80
2019-03-19T05:18:53.755Z,1.80
2019-03-19T05:21:22.002Z,1.80
2019-03-19T05:23:50.234Z,1.80
2019-03-19T05:26:18.480Z,1.70
2019-03-19T05:28:46.728Z,1.70
2019-03-19T05:31:14.971Z,1.70
2019-03-19T05:33:43.211Z,1.70
2019-03-19T05:36:11.479Z,1.80
2019-03-19T05:38:39.732Z,1.80
2019-03-19T05:41:08.003Z,1.90
2019-03-19T05:43:36.341Z,1.80
2019-03-19T05:46:04.598Z,1.80
2019-03-19T05:48:32.897Z,1.80
2019-03-19T05:51:01.121Z,1.80
2019-03-19T05:53:29.368Z,1.80
2019-03-19T05:55:57.599Z,1.80
2019-03-19T05:58:25.873Z,1.80
2019-03-19T06:00:54.104Z,1.80
2019-03-19T06:03:22.375Z,1.70
2019-03-19T06:05:50.611Z,1.70
2019-03-19T06:08:18.858Z,1.70
2019-03-19T06:10:47.098Z,1.80
2019-03-19T06:13:15.432Z,1.90
2019-03-19T06:15:43.678Z,2.00
2019-03-19T06:18:11.921Z,2.10
2019-03-19T06:20:40.179Z,2.10
2019-03-19T06:23:08.410Z,2.10
2019-03-19T06:25:36.672Z,2.20
2019-03-19T06:28:04.902Z,2.20
2019-03-19T06:30:33.155Z,2.30
2019-03-19T06:33:01.437Z,2.30
2019-03-19T06:35:29.715Z,2.30
2019-03-19T06:37:57.955Z,2.40
2019-03-19T06:40:26.204Z,2.40
2019-03-19T06:42:54.427Z,2.50
2019-03-19T06:45:23.220Z,2.70
2019-03-19T06:47:51.802Z,2.90
2019-03-19T06:50:20.899Z,3.10
2019-03-19T06:52:49.136Z,3.20
2019-03-19T06:55:18.632Z,3.40
2019-03-19T06:57:46.876Z,3.50
2019-03-19T07:00:20.047Z,3.30
2019-03-19T07:02:48.274Z,3.50
2019-03-19T07:05:17.479Z,3.40
2019-03-19T07:07:45.714Z,3.20
2019-03-19T07:10:16.176Z,3.30
2019-03-19T07:12:44.499Z,3.20
2019-03-19T07:15:19.419Z,3.40
2019-03-19T07:17:47.679Z,3.50
2019-03-19T07:20:18.211Z,3.40
2019-03-19T07:22:46.515Z,3.20
2019-03-19T07:25:16.016Z,3.30
2019-03-19T07:27:44.261Z,3.50
2019-03-19T07:30:25.414Z,3.60
2019-03-19T07:32:53.673Z,3.50
2019-03-19T07:35:21.915Z,3.70
2019-03-19T07:37:50.170Z,3.70
2019-03-19T07:40:18.480Z,3.70
2019-03-19T07:42:46.884Z,3.80
2019-03-19T07:45:24.887Z,3.90
2019-03-19T07:47:53.122Z,3.90
2019-03-19T07:50:22.224Z,4.10
2019-03-19T07:52:50.470Z,4.10
2019-03-19T07:55:18.696Z,4.20
2019-03-19T07:57:46.965Z,4.20
2019-03-19T08:00:17.276Z,4.60
2019-03-19T08:02:45.747Z,4.40
2019-03-19T08:05:13.988Z,4.40
2019-03-19T08:07:42.222Z,4.40
2019-03-19T08:10:14.330Z,4.30
2019-03-19T08:12:42.581Z,4.50
2019-03-19T08:15:19.851Z,4.40
2019-03-19T08:17:48.102Z,4.60
2019-03-19T08:20:17.278Z,4.90
2019-03-19T08:22:45.526Z,5.10
2019-03-19T08:25:14.522Z,5.10
2019-03-19T08:27:42.827Z,5.30
2019-03-19T08:30:24.340Z,5.40
2019-03-19T08:32:52.083Z,5.40
2019-03-19T08:35:20.318Z,5.50
2019-03-19T08:37:48.571Z,5.90
2019-03-19T08:40:18.729Z,5.80
2019-03-19T08:42:46.982Z,5.90
2019-03-19T08:45:23.191Z,6.20
2019-03-19T08:47:51.476Z,6.40
2019-03-19T08:50:23.363Z,8.20
2019-03-19T08:52:51.608Z,6.40
2019-03-19T08:55:20.012Z,6.60
2019-03-19T08:57:48.251Z,6.90
2019-03-19T09:00:18.690Z,7.00
2019-03-19T09:02:46.916Z,6.90
2019-03-19T09:05:15.375Z,7.20
2019-03-19T09:07:43.662Z,7.20
2019-03-19T09:10:16.010Z,6.80
2019-03-19T09:12:44.244Z,6.60
2019-03-19T09:15:17.032Z,6.70
2019-03-19T09:17:45.281Z,6.50
2019-03-19T09:20:16.857Z,6.50
2019-03-19T09:22:45.090Z,6.70
2019-03-19T09:25:13.410Z,6.40
2019-03-19T09:27:41.638Z,6.10
2019-03-19T09:30:17.806Z,6.00
2019-03-19T09:32:46.114Z,6.00
2019-03-19T09:35:14.361Z,5.90
2019-03-19T09:37:46.312Z,5.50
2019-03-19T09:40:19.831Z,5.40
2019-03-19T09:42:48.159Z,5.20
2019-03-19T09:45:17.373Z,5.30
2019-03-19T09:47:45.872Z,5.40
2019-03-19T09:50:21.372Z,5.40
2019-03-19T09:52:49.626Z,5.30
2019-03-19T09:55:17.876Z,5.00
2019-03-19T09:57:46.186Z,5.00
2019-03-19T10:00:21.536Z,5.10
2019-03-19T10:02:50.069Z,5.10
2019-03-19T10:05:18.475Z,5.40
2019-03-19T10:07:46.855Z,5.60
2019-03-19T10:10:21.566Z,5.90
2019-03-19T10:12:50.019Z,6.20
2019-03-19T10:15:18.401Z,6.10
2019-03-19T10:17:46.644Z,6.10
2019-03-19T10:20:18.075Z,6.00
2019-03-19T10:22:46.687Z,6.00
2019-03-19T10:25:15.870Z,6.20
2019-03-19T10:27:44.111Z,6.50
2019-03-19T10:30:15.142Z,6.90
2019-03-19T10:32:43.386Z,7.30
2019-03-19T10:35:11.623Z,7.50
2019-03-19T10:37:39.870Z,7.30
2019-03-19T10:40:09.845Z,7.40
2019-03-19T10:42:38.100Z,7.80
2019-03-19T10:45:09.739Z,7.70
2019-03-19T10:47:37.974Z,7.60
2019-03-19T10:50:15.063Z,7.90
2019-03-19T10:52:43.309Z,8.10
2019-03-19T10:55:11.534Z,8.20
2019-03-19T10:57:39.782Z,8.00
2019-03-19T11:00:19.282Z,7.70
2019-03-19T11:02:47.579Z,7.90
2019-03-19T11:05:16.151Z,8.30
2019-03-19T11:07:44.388Z,8.10
2019-03-19T11:10:14.263Z,8.00
2019-03-19T11:12:42.580Z,8.30
2019-03-19T11:15:18.045Z,8.10
2019-03-19T11:17:46.296Z,8.00
2019-03-19T11:20:19.358Z,8.00
2019-03-19T11:22:47.606Z,8.30
2019-03-19T11:25:25.603Z,8.30
2019-03-19T11:27:53.839Z,8.20
2019-03-19T11:30:24.171Z,8.40
2019-03-19T11:32:52.422Z,8.30
2019-03-19T11:35:20.650Z,8.20
2019-03-19T11:37:48.923Z,8.20
2019-03-19T11:40:18.116Z,8.10
2019-03-19T11:42:46.550Z,7.90
2019-03-19T11:45:21.271Z,7.50
2019-03-19T11:47:49.532Z,7.30
2019-03-19T11:50:22.771Z,7.30
2019-03-19T11:52:51.093Z,7.30
2019-03-19T11:55:19.382Z,7.10
2019-03-19T11:57:47.647Z,7.20
2019-03-19T12:00:22.611Z,7.30
2019-03-19T12:02:50.860Z,7.20
2019-03-19T12:05:19.095Z,7.10
2019-03-19T12:07:47.343Z,7.30
2019-03-19T12:10:15.586Z,7.30
2019-03-19T12:12:43.844Z,7.10
2019-03-19T12:15:12.348Z,7.20
2019-03-19T12:17:40.624Z,7.00
2019-03-19T12:20:12.811Z,7.10
2019-03-19T12:22:41.057Z,7.20
2019-03-19T12:25:10.527Z,7.30
2019-03-19T12:27:38.791Z,7.40
2019-03-19T12:30:22.474Z,7.70
2019-03-19T12:32:48.059Z,7.70
2019-03-19T12:35:17.583Z,7.90
2019-03-19T12:37:45.831Z,8.10
2019-03-19T12:40:21.092Z,8.30
2019-03-19T12:42:49.331Z,8.30
2019-03-19T12:45:19.772Z,8.50
2019-03-19T12:47:48.076Z,8.80
2019-03-19T12:50:18.038Z,8.80
2019-03-19T12:52:46.279Z,8.70
2019-03-19T12:55:20.610Z,8.80
2019-03-19T12:57:48.967Z,8.80
2019-03-19T13:00:34.325Z,8.80
2019-03-19T13:02:56.454Z,9.10
2019-03-19T13:05:24.721Z,9.60
2019-03-19T13:07:52.964Z,9.60
2019-03-19T13:10:24.850Z,9.00
2019-03-19T13:12:53.087Z,8.70
2019-03-19T13:15:21.504Z,8.60
2019-03-19T13:17:49.812Z,8.80
2019-03-19T13:20:22.182Z,8.90
2019-03-19T13:22:53.032Z,9.30
2019-03-19T13:25:22.165Z,9.80
2019-03-19T13:27:50.474Z,10.00
2019-03-19T13:30:30.146Z,10.20
2019-03-19T13:32:58.396Z,10.80
2019-03-19T13:35:26.637Z,10.90
2019-03-19T13:37:54.882Z,10.20
2019-03-19T13:40:23.215Z,10.00
2019-03-19T13:42:51.489Z,9.60
2019-03-19T13:45:23.056Z,9.30
2019-03-19T13:47:51.289Z,9.10
2019-03-19T13:50:20.181Z,8.60
2019-03-19T13:52:48.449Z,8.50
2019-03-19T13:55:17.614Z,8.70
2019-03-19T13:57:45.939Z,8.50
2019-03-19T14:00:15.528Z,8.30
2019-03-19T14:02:43.834Z,8.10
2019-03-19T14:05:12.901Z,7.80
2019-03-19T14:07:41.139Z,7.90
2019-03-19T14:10:11.974Z,8.60
2019-03-19T14:12:40.259Z,8.70
2019-03-19T14:15:14.185Z,9.30
2019-03-19T14:17:42.519Z,10.90
2019-03-19T14:20:13.570Z,10.90
2019-03-19T14:22:41.812Z,9.40
2019-03-19T14:25:11.188Z,9.10
2019-03-19T14:27:39.429Z,9.20
2019-03-19T14:30:10.955Z,9.10
2019-03-19T14:32:39.240Z,8.70
2019-03-19T14:35:08.426Z,9.00
2019-03-19T14:37:36.691Z,9.00
2019-03-19T14:40:08.418Z,9.30
2019-03-19T14:42:36.663Z,9.90
2019-03-19T14:45:07.343Z,10.80
2019-03-19T14:47:35.583Z,11.30
2019-03-19T14:50:06.663Z,10.90
2019-03-19T14:52:34.919Z,10.20
2019-03-19T14:55:03.219Z,10.00
2019-03-19T14:57:31.494Z,9.90
2019-03-19T14:59:59.774Z,10.50
2019-03-19T15:02:28.049Z,10.60
2019-03-19T15:04:56.279Z,10.40
2019-03-19T15:07:24.547Z,11.20
2019-03-19T15:09:52.779Z,12.70
2019-03-19T15:12:21.030Z,13.70
2019-03-19T15:14:49.283Z,13.80
2019-03-19T15:17:17.519Z,13.40
2019-03-19T15:19:45.932Z,12.20
2019-03-19T15:22:14.174Z,12.50
2019-03-19T15:24:42.415Z,13.40
2019-03-19T15:27:10.671Z,13.40
2019-03-19T15:29:38.910Z,13.60
2019-03-19T15:32:07.148Z,14.50
2019-03-19T15:34:35.444Z,13.90
2019-03-19T15:37:03.695Z,14.50
2019-03-19T15:39:31.945Z,13.90
2019-03-19T15:42:00.196Z,13.10
2019-03-19T15:44:28.439Z,11.70
2019-03-19T15:46:56.697Z,11.00
2019-03-19T15:49:24.950Z,10.10
2019-03-19T15:51:53.193Z,9.60
2019-03-19T15:54:22.378Z,9.20
2019-03-19T15:56:50.623Z,9.00
2019-03-19T15:59:18.847Z,9.10
2019-03-19T16:01:47.081Z,9.70
2019-03-19T16:04:15.329Z,10.90
2019-03-19T16:06:43.568Z,12.40
2019-03-19T16:09:11.817Z,12.80
2019-03-19T16:11:40.055Z,13.20
2019-03-19T16:14:08.294Z,13.50
2019-03-19T16:16:36.532Z,13.70
2019-03-19T16:19:04.780Z,13.40
2019-03-19T16:21:33.042Z,13.00
2019-03-19T16:24:01.280Z,13.00
2019-03-19T16:26:29.514Z,12.80
2019-03-19T16:28:57.763Z,12.90
2019-03-19T16:31:26.078Z,12.70
2019-03-19T16:33:54.323Z,11.60
2019-03-19T16:36:22.635Z,11.60
2019-03-19T16:38:50.891Z,11.50
2019-03-19T16:41:19.191Z,11.10
2019-03-19T16:43:47.443Z,10.80
2019-03-19T16:46:15.675Z,10.90
2019-03-19T16:48:43.923Z,10.40
2019-03-19T16:51:12.162Z,10.20
2019-03-19T16:53:40.417Z,10.40
2019-03-19T16:56:08.651Z,10.20
2019-03-19T16:58:36.910Z,9.90
2019-03-19T17:01:05.145Z,9.80
2019-03-19T17:03:33.364Z,9.60
2019-03-19T17:06:01.611Z,9.40
2019-03-19T17:08:29.843Z,9.20
2019-03-19T17:10:58.097Z,9.00
2019-03-19T17:13:26.331Z,8.70
2019-03-19T17:15:54.582Z,8.60
2019-03-19T17:18:22.810Z,8.30
2019-03-19T17:20:51.062Z,8.00
2019-03-19T17:23:19.297Z,7.70
2019-03-19T17:25:47.563Z,7.30
2019-03-19T17:28:22.433Z,7.10
2019-03-19T17:30:45.766Z,6.90
2019-03-19T17:33:14.029Z,6.70
2019-03-19T17:35:42.271Z,6.60
2019-03-19T17:38:10.498Z,6.70
2019-03-19T17:40:41.532Z,6.50
2019-03-19T17:43:08.714Z,6.40
2019-03-19T17:45:36.971Z,6.20
2019-03-19T17:48:15.442Z,6.00
2019-03-19T17:50:37.521Z,6.10
2019-03-19T17:53:06.442Z,6.00
2019-03-19T17:55:34.687Z,6.00
2019-03-19T17:58:02.922Z,6.00
2019-03-19T18:00:32.831Z,5.90
2019-03-19T18:03:01.095Z,5.70
2019-03-19T18:05:29.360Z,5.60
2019-03-19T18:07:57.601Z,5.70
2019-03-19T18:10:25.839Z,5.60
2019-03-19T18:12:54.086Z,5.70
2019-03-19T18:15:22.336Z,5.60
2019-03-19T18:17:50.558Z,5.50
2019-03-19T18:20:18.884Z,5.40
2019-03-19T18:22:47.110Z,5.40
2019-03-19T18:25:19.111Z,5.30
2019-03-19T18:27:47.364Z,5.20
2019-03-19T18:30:21.854Z,5.20
2019-03-19T18:32:50.091Z,4.80
2019-03-19T18:35:18.348Z,4.70
2019-03-19T18:37:46.587Z,4.70
2019-03-19T18:40:15.875Z,4.80
2019-03-19T18:42:44.115Z,4.60
2019-03-19T18:45:13.920Z,4.70
2019-03-19T18:47:42.168Z,4.80
2019-03-19T18:50:23.091Z,4.60
2019-03-19T18:52:51.325Z,4.40
2019-03-19T18:55:19.573Z,4.10
2019-03-19T18:57:47.906Z,3.90
2019-03-19T19:00:17.320Z,3.70
2019-03-19T19:02:50.294Z,3.60
2019-03-19T19:05:17.783Z,3.40
2019-03-19T19:07:46.094Z,3.50
2019-03-19T19:10:16.442Z,3.50
2019-03-19T19:12:44.897Z,3.40
2019-03-19T19:15:17.686Z,3.40
2019-03-19T19:17:46.045Z,3.40
2019-03-19T19:20:15.315Z,3.30
2019-03-19T19:22:43.802Z,3.10
2019-03-19T19:25:17.013Z,3.00
2019-03-19T19:27:45.875Z,2.80
2019-03-19T19:30:26.533Z,2.70
2019-03-19T19:33:01.971Z,2.70
2019-03-19T19:35:28.107Z,2.70
2019-03-19T19:37:59.157Z,2.60
2019-03-19T19:40:28.041Z,2.60
2019-03-19T19:42:56.929Z,2.50
2019-03-19T19:45:25.718Z,2.50
2019-03-19T19:47:54.531Z,2.40
2019-03-19T19:50:23.919Z,2.30
2019-03-19T19:52:53.238Z,2.30
2019-03-19T19:55:24.225Z,2.30
2019-03-19T19:57:53.681Z,2.30
2019-03-19T20:00:23.434Z,2.20
2019-03-19T20:02:53.873Z,2.20
2019-03-19T20:05:23.311Z,2.10
2019-03-19T20:07:53.023Z,2.10
2019-03-19T20:10:26.859Z,2.10
2019-03-19T20:12:56.850Z,2.10
2019-03-19T20:15:26.510Z,2.00
2019-03-19T20:17:56.395Z,1.90
2019-03-19T20:20:30.910Z,1.80
2019-03-19T20:23:00.821Z,1.80
2019-03-19T20:25:30.262Z,1.70
2019-03-19T20:28:00.318Z,1.70
2019-03-19T20:30:30.190Z,1.70
2019-03-19T20:32:59.953Z,1.60
2019-03-19T20:35:29.546Z,1.60
2019-03-19T20:37:59.624Z,1.60
2019-03-19T20:40:29.387Z,1.50
2019-03-19T20:43:11.476Z,1.50
2019-03-19T20:45:41.202Z,1.50
2019-03-19T20:48:10.623Z,1.50
2019-03-19T20:50:40.825Z,1.70
2019-03-19T20:53:10.412Z,1.70
2019-03-19T20:55:39.790Z,1.50
2019-03-19T20:58:09.432Z,1.40
2019-03-19T21:00:38.542Z,1.40
2019-03-19T21:03:07.497Z,1.40
2019-03-19T21:05:36.926Z,1.50
2019-03-19T21:08:05.792Z,1.60
2019-03-19T21:10:34.681Z,1.80
2019-03-19T21:13:03.472Z,1.90
2019-03-19T21:15:32.255Z,1.90
2019-03-19T21:18:00.936Z,1.80
2019-03-19T21:20:29.731Z,1.80
2019-03-19T21:22:58.153Z,1.80
2019-03-19T21:25:26.531Z,1.70
2019-03-19T21:27:54.994Z,1.80
2019-03-19T21:30:24.125Z,1.90
2019-03-19T21:32:52.433Z,1.80
2019-03-19T21:35:22.891Z,1.90
2019-03-19T21:37:51.189Z,1.90
2019-03-19T21:40:19.431Z,1.90
2019-03-19T21:42:47.676Z,1.90
2019-03-19T21:45:18.155Z,1.90
2019-03-19T21:47:46.448Z,1.90
2019-03-19T21:50:19.054Z,2.00
2019-03-19T21:52:47.304Z,1.80
2019-03-19T21:55:15.615Z,1.70
2019-03-19T21:57:43.938Z,1.70
2019-03-19T22:00:19.921Z,1.70
2019-03-19T22:02:48.147Z,1.70
2019-03-19T22:05:16.393Z,1.60
2019-03-19T22:07:44.620Z,1.50
2019-03-19T22:10:17.653Z,1.50
2019-03-19T22:12:45.896Z,1.60
2019-03-19T22:15:16.076Z,1.60
2019-03-19T22:17:44.394Z,1.60
2019-03-19T22:20:12.915Z,1.50
2019-03-19T22:22:41.146Z,1.50
2019-03-19T22:25:12.091Z,1.50
2019-03-19T22:27:40.364Z,1.50
2019-03-19T22:30:11.451Z,1.50
2019-03-19T22:32:39.868Z,1.40
2019-03-19T22:35:08.106Z,1.50
2019-03-19T22:37:36.334Z,1.50
2019-03-19T22:40:07.874Z,1.40
2019-03-19T22:42:36.149Z,1.40
2019-03-19T22:45:07.536Z,1.40
2019-03-19T22:47:35.768Z,1.40
2019-03-19T22:50:05.753Z,1.20
2019-03-19T22:52:33.988Z,1.20
2019-03-19T22:55:02.226Z,1.20
2019-03-19T22:57:30.499Z,1.30
2019-03-19T22:59:58.784Z,1.50
2019-03-19T23:02:27.007Z,1.50
2019-03-19T23:04:55.357Z,1.50
2019-03-19T23:07:23.591Z,1.60
2019-03-19T23:09:51.827Z,1.50
2019-03-19T23:12:20.069Z,1.50
2019-03-19T23:14:48.316Z,1.60
2019-03-19T23:17:16.550Z,1.60
2019-03-19T23:19:44.800Z,1.60
2019-03-19T23:22:13.027Z,1.50
2019-03-19T23:24:41.276Z,1.40
2019-03-19T23:27:09.507Z,1.40
2019-03-19T23:29:37.746Z,1.50
2019-03-19T23:32:05.979Z,1.60
2019-03-19T23:34:38.565Z,1.70
2019-03-19T23:37:04.170Z,1.80
2019-03-19T23:39:32.407Z,1.80
2019-03-19T23:42:00.648Z,1.70
2019-03-19T23:44:28.887Z,1.50
2019-03-19T23:46:57.700Z,1.50
2019-03-19T23:49:26.064Z,1.50
2019-03-19T23:51:54.365Z,1.50
2019-03-19T23:54:22.587Z,1.50
2019-03-19T23:56:50.834Z,1.40
2019-03-19T23:59:19.152Z,1.50
